createdAt,value
2022-08-01T00:00:18.730Z,99809.41
2022-08-01T00:02:46.150Z,99811.91
2022-08-01T00:05:13.914Z,99811.25
2022-08-01T00:07:41.417Z,99811.25
2022-08-01T00:10:12.446Z,99814.91
2022-08-01T00:12:40.368Z,99810.59
2022-08-01T00:15:10.383Z,99813.91
2022-08-01T00:17:38.416Z,99800.12
2022-08-01T00:20:10.428Z,99812.75
2022-08-01T00:22:37.894Z,99805.50
2022-08-01T00:25:06.295Z,99803.34
2022-08-01T00:27:34.575Z,99802.81
2022-08-01T00:30:11.766Z,99795.47
2022-08-01T00:32:44.676Z,99787.03
2022-08-01T00:35:12.597Z,99783.84
2022-08-01T00:37:39.693Z,99788.69
2022-08-01T00:40:08.152Z,99788.37
2022-08-01T00:42:39.090Z,99780.72
2022-08-01T00:45:09.223Z,99779.91
2022-08-01T00:47:36.609Z,99779.25
2022-08-01T00:50:05.608Z,99787.03
2022-08-01T00:52:33.762Z,99791.22
2022-08-01T00:55:01.256Z,99785.06
2022-08-01T00:58:02.466Z,99796.03
2022-08-01T01:00:16.658Z,99788.37
2022-08-01T01:02:44.845Z,99802.53
2022-08-01T01:05:12.014Z,99802.69
2022-08-01T01:08:04.194Z,99797.22
2022-08-01T01:10:34.288Z,99798.22
2022-08-01T01:13:50.469Z,99801.69
2022-08-01T01:16:20.025Z,99803.00
2022-08-01T01:18:59.273Z,99798.38
2022-08-01T01:21:54.291Z,99808.50
2022-08-01T01:24:33.034Z,99793.41
2022-08-01T01:27:03.119Z,99797.69
2022-08-01T01:29:58.742Z,99790.53
2022-08-01T01:32:37.405Z,99798.16
2022-08-01T01:35:08.912Z,99796.00
2022-08-01T01:37:39.993Z,99794.00
2022-08-01T01:40:09.044Z,99787.03
2022-08-01T01:42:37.154Z,99795.03
2022-08-01T01:45:05.763Z,99786.72
2022-08-01T01:47:34.016Z,99785.22
2022-08-01T01:50:01.297Z,99793.19
2022-08-01T01:52:29.066Z,99785.72
2022-08-01T01:54:57.336Z,99786.72
2022-08-01T01:57:25.106Z,99784.53
2022-08-01T01:59:53.336Z,99768.28
2022-08-01T02:02:21.566Z,99778.41
2022-08-01T02:04:49.599Z,99769.75
2022-08-01T02:07:22.487Z,99775.91
2022-08-01T02:09:50.211Z,99767.44
2022-08-01T02:12:18.052Z,99763.78
2022-08-01T02:14:46.825Z,99764.94
2022-08-01T02:17:17.627Z,99764.28
2022-08-01T02:19:45.212Z,99769.28
2022-08-01T02:22:16.055Z,99762.16
2022-08-01T02:24:56.602Z,99764.16
2022-08-01T02:27:31.509Z,99765.78
2022-08-01T02:30:01.427Z,99751.19
2022-08-01T02:32:39.970Z,99760.81
2022-08-01T02:35:11.188Z,99755.66
2022-08-01T02:37:44.305Z,99765.94
2022-08-01T02:40:14.620Z,99774.41
2022-08-01T02:42:45.198Z,99768.47
2022-08-01T02:45:13.857Z,99777.94
2022-08-01T02:47:43.039Z,99776.25
2022-08-01T02:50:12.428Z,99768.47
2022-08-01T02:52:41.426Z,99766.47
2022-08-01T02:55:09.769Z,99765.63
2022-08-01T02:57:51.609Z,99761.31
2022-08-01T03:00:24.759Z,99757.00
2022-08-01T03:02:55.942Z,99752.69
2022-08-01T03:05:25.813Z,99758.84
2022-08-01T03:07:54.620Z,99748.87
2022-08-01T03:10:22.357Z,99746.34
2022-08-01T03:12:50.682Z,99743.88
2022-08-01T03:15:18.363Z,99749.34
2022-08-01T03:17:46.853Z,99750.84
2022-08-01T03:20:15.695Z,99755.66
2022-08-01T03:22:43.673Z,99754.50
2022-08-01T03:25:11.852Z,99743.03
2022-08-01T03:27:41.282Z,99747.03
2022-08-01T03:30:08.930Z,99753.50
2022-08-01T03:32:36.580Z,99755.16
2022-08-01T03:35:04.304Z,99749.84
2022-08-01T03:37:45.732Z,99745.03
2022-08-01T03:40:29.684Z,99745.19
2022-08-01T03:43:00.918Z,99752.16
2022-08-01T03:45:35.682Z,99751.84
2022-08-01T03:48:06.640Z,99751.50
2022-08-01T03:50:35.464Z,99757.47
2022-08-01T03:53:03.721Z,99760.81
2022-08-01T03:55:32.377Z,99755.69
2022-08-01T03:58:00.814Z,99757.16
2022-08-01T04:00:28.389Z,99756.97
2022-08-01T04:02:57.040Z,99759.97
2022-08-01T04:05:25.023Z,99763.13
2022-08-01T04:08:00.487Z,99763.78
2022-08-01T04:10:27.939Z,99776.09
2022-08-01T04:12:55.050Z,99789.38
2022-08-01T04:15:22.376Z,99783.72
2022-08-01T04:17:49.845Z,99787.37
2022-08-01T04:20:16.965Z,99784.75
2022-08-01T04:22:44.294Z,99775.94
2022-08-01T04:25:27.180Z,99784.88
2022-08-01T04:27:54.765Z,99775.41
2022-08-01T04:30:27.262Z,99777.91
2022-08-01T04:32:56.649Z,99763.13
2022-08-01T04:36:01.858Z,99779.91
2022-08-01T04:38:17.857Z,99773.50
2022-08-01T04:40:49.231Z,99781.31
2022-08-01T04:43:16.315Z,99775.94
2022-08-01T04:45:44.886Z,99772.25
2022-08-01T04:48:13.212Z,99765.72
2022-08-01T04:50:42.939Z,99765.03
2022-08-01T04:53:14.920Z,99765.94
2022-08-01T04:55:42.325Z,99778.25
2022-08-01T04:58:13.274Z,99766.78
2022-08-01T05:00:43.600Z,99766.66
2022-08-01T05:03:10.706Z,99766.00
2022-08-01T05:05:37.799Z,99773.41
2022-08-01T05:08:07.250Z,99773.72
2022-08-01T05:10:35.140Z,99778.25
2022-08-01T05:13:02.237Z,99775.09
2022-08-01T05:15:29.669Z,99769.72
2022-08-01T05:17:57.608Z,99773.00
2022-08-01T05:20:24.769Z,99760.09
2022-08-01T05:22:52.132Z,99758.06
2022-08-01T05:25:20.166Z,99761.25
2022-08-01T05:27:50.781Z,99765.81
2022-08-01T05:30:18.525Z,99766.34
2022-08-01T05:32:45.601Z,99762.97
2022-08-01T05:35:12.793Z,99768.31
2022-08-01T05:37:40.228Z,99755.25
2022-08-01T05:40:07.881Z,99768.09
2022-08-01T05:42:35.045Z,99769.22
2022-08-01T05:45:02.427Z,99768.19
2022-08-01T05:47:29.555Z,99762.84
2022-08-01T05:49:56.663Z,99763.88
2022-08-01T05:52:24.016Z,99766.78
2022-08-01T05:54:51.093Z,99769.88
2022-08-01T05:57:18.253Z,99769.88
2022-08-01T05:59:45.596Z,99776.62
2022-08-01T06:02:12.734Z,99773.50
2022-08-01T06:04:40.309Z,99777.81
2022-08-01T06:07:07.365Z,99780.87
2022-08-01T06:09:34.472Z,99779.19
2022-08-01T06:12:01.869Z,99783.66
2022-08-01T06:14:29.006Z,99789.22
2022-08-01T06:16:56.356Z,99784.44
2022-08-01T06:19:23.764Z,99791.78
2022-08-01T06:21:53.682Z,99792.53
2022-08-01T06:24:20.849Z,99793.09
2022-08-01T06:26:48.193Z,99800.56
2022-08-01T06:29:15.311Z,99794.72
2022-08-01T06:31:42.402Z,99797.53
2022-08-01T06:34:09.839Z,99791.72
2022-08-01T06:36:36.910Z,99792.88
2022-08-01T06:39:04.888Z,99795.22
2022-08-01T06:41:32.372Z,99785.44
2022-08-01T06:44:01.017Z,99797.88
2022-08-01T06:46:30.260Z,99795.44
2022-08-01T06:48:59.863Z,99794.97
2022-08-01T06:51:27.095Z,99798.25
2022-08-01T06:53:54.719Z,99799.53
2022-08-01T06:56:22.286Z,99786.53
2022-08-01T06:58:51.083Z,99782.75
2022-08-01T07:01:18.442Z,99786.81
2022-08-01T07:03:54.299Z,99778.63
2022-08-01T07:06:25.886Z,99778.63
2022-08-01T07:08:54.154Z,99771.47
2022-08-01T07:11:22.229Z,99767.72
2022-08-01T07:13:49.440Z,99772.47
2022-08-01T07:16:17.421Z,99777.12
2022-08-01T07:18:44.706Z,99775.97
2022-08-01T07:21:38.979Z,99775.69
2022-08-01T07:23:59.544Z,99779.56
2022-08-01T07:26:28.379Z,99776.72
2022-08-01T07:28:56.185Z,99774.97
2022-08-01T07:31:25.685Z,99770.31
2022-08-01T07:33:53.701Z,99774.50
2022-08-01T07:36:20.856Z,99774.66
2022-08-01T07:38:48.524Z,99788.88
2022-08-01T07:41:15.976Z,99782.13
2022-08-01T07:43:50.671Z,99770.03
2022-08-01T07:46:22.379Z,99772.19
2022-08-01T07:48:49.611Z,99775.44
2022-08-01T07:51:16.772Z,99778.41
2022-08-01T07:53:44.213Z,99779.72
2022-08-01T07:56:11.370Z,99783.25
2022-08-01T07:58:38.462Z,99785.84
2022-08-01T08:01:05.949Z,99780.87
2022-08-01T08:03:33.417Z,99781.69
2022-08-01T08:06:00.654Z,99781.19
2022-08-01T08:08:28.482Z,99782.56
2022-08-01T08:10:56.096Z,99779.34
2022-08-01T08:13:23.198Z,99784.16
2022-08-01T08:15:50.333Z,99789.13
2022-08-01T08:18:17.722Z,99791.56
2022-08-01T08:20:44.988Z,99782.63
2022-08-01T08:23:42.402Z,99785.03
2022-08-01T08:26:13.850Z,99784.28
2022-08-01T08:28:41.019Z,99790.44
2022-08-01T08:31:50.637Z,99796.44
2022-08-01T08:33:56.593Z,99789.28
2022-08-01T08:36:30.807Z,99794.31
2022-08-01T08:39:02.209Z,99800.12
2022-08-01T08:41:36.883Z,99802.00
2022-08-01T08:44:06.590Z,99810.41
2022-08-01T08:46:53.207Z,99800.78
2022-08-01T08:49:25.842Z,99806.03
2022-08-01T08:51:53.876Z,99801.44
2022-08-01T08:54:31.072Z,99801.03
2022-08-01T08:57:01.111Z,99812.53
2022-08-01T08:59:29.406Z,99810.47
2022-08-01T09:01:57.766Z,99816.16
2022-08-01T09:04:26.753Z,99817.78
2022-08-01T09:06:54.987Z,99812.25
2022-08-01T09:09:23.077Z,99809.56
2022-08-01T09:11:56.853Z,99811.81
2022-08-01T09:14:33.404Z,99807.72
2022-08-01T09:17:04.420Z,99817.00
2022-08-01T09:19:41.537Z,99809.94
2022-08-01T09:22:14.982Z,99811.13
2022-08-01T09:24:43.036Z,99812.00
2022-08-01T09:27:21.891Z,99819.22
2022-08-01T09:30:00.802Z,99807.84
2022-08-01T09:32:35.177Z,99805.63
2022-08-01T09:35:31.867Z,99808.97
2022-08-01T09:38:24.045Z,99796.16
2022-08-01T09:41:00.172Z,99801.28
2022-08-01T09:43:31.517Z,99803.53
2022-08-01T09:45:59.959Z,99804.19
2022-08-01T09:48:29.667Z,99801.19
2022-08-01T09:51:03.914Z,99799.41
2022-08-01T09:53:51.964Z,99799.25
2022-08-01T09:56:22.475Z,99795.25
2022-08-01T09:59:01.052Z,99800.50
2022-08-01T10:01:43.354Z,99797.50
2022-08-01T10:04:15.147Z,99800.00
2022-08-01T10:06:45.366Z,99796.19
2022-08-01T10:09:14.227Z,99795.41
2022-08-01T10:11:45.062Z,99796.44
2022-08-01T10:14:17.679Z,99796.16
2022-08-01T10:16:46.282Z,99800.81
2022-08-01T10:19:24.642Z,99789.66
2022-08-01T10:21:58.135Z,99795.66
2022-08-01T10:24:29.199Z,99795.09
2022-08-01T10:27:05.479Z,99787.13
2022-08-01T10:30:05.615Z,99786.00
2022-08-01T10:32:36.783Z,99781.91
2022-08-01T10:35:15.304Z,99788.37
2022-08-01T10:37:51.655Z,99780.53
2022-08-01T10:40:37.069Z,99772.37
2022-08-01T10:43:04.773Z,99771.66
2022-08-01T10:45:32.472Z,99767.66
2022-08-01T10:48:20.961Z,99774.34
2022-08-01T10:50:50.856Z,99768.94
2022-08-01T10:53:23.912Z,99772.81
2022-08-01T10:55:59.246Z,99769.00
2022-08-01T10:58:27.900Z,99766.59
2022-08-01T11:01:37.530Z,99757.66
2022-08-01T11:04:16.593Z,99764.66
2022-08-01T11:07:06.019Z,99762.72
2022-08-01T11:09:41.765Z,99761.00
2022-08-01T11:12:24.825Z,99762.91
2022-08-01T11:15:02.688Z,99764.66
2022-08-01T11:17:42.175Z,99756.34
2022-08-01T11:20:18.541Z,99750.16
2022-08-01T11:23:16.720Z,99740.69
2022-08-01T11:26:04.951Z,99737.91
2022-08-01T11:28:36.457Z,99738.44
2022-08-01T11:31:14.204Z,99745.03
2022-08-01T11:33:46.918Z,99734.25
2022-08-01T11:36:15.512Z,99734.72
2022-08-01T11:39:13.195Z,99727.31
2022-08-01T11:41:44.868Z,99733.50
2022-08-01T11:44:28.164Z,99736.03
2022-08-01T11:47:11.659Z,99723.56
2022-08-01T11:49:49.149Z,99723.66
2022-08-01T11:52:26.740Z,99731.53
2022-08-01T11:54:56.936Z,99734.72
2022-08-01T11:57:34.281Z,99731.56
2022-08-01T12:00:08.720Z,99735.56
2022-08-01T12:02:39.281Z,99735.66
2022-08-01T12:05:14.088Z,99737.91
2022-08-01T12:07:44.974Z,99731.31
2022-08-01T12:10:17.697Z,99732.50
2022-08-01T12:12:53.198Z,99741.28
2022-08-01T12:15:23.670Z,99738.72
2022-08-01T12:17:58.288Z,99744.22
2022-08-01T12:21:02.044Z,99737.38
2022-08-01T12:23:29.111Z,99731.03
2022-08-01T12:25:56.451Z,99735.44
2022-08-01T12:28:23.912Z,99738.12
2022-08-01T12:30:51.469Z,99729.75
2022-08-01T12:33:21.384Z,99729.66
2022-08-01T12:35:48.910Z,99726.94
2022-08-01T12:38:18.566Z,99733.91
2022-08-01T12:40:47.603Z,99721.06
2022-08-01T12:43:26.856Z,99724.06
2022-08-01T12:45:58.668Z,99727.28
2022-08-01T12:48:26.324Z,99719.59
2022-08-01T12:50:54.241Z,99715.62
2022-08-01T12:53:22.779Z,99718.19
2022-08-01T12:55:59.388Z,99716.06
2022-08-01T12:58:34.362Z,99718.16
2022-08-01T13:01:10.357Z,99727.56
2022-08-01T13:03:38.488Z,99716.97
2022-08-01T13:06:16.877Z,99722.38
2022-08-01T13:08:46.348Z,99730.72
2022-08-01T13:11:18.145Z,99722.88
2022-08-01T13:13:48.667Z,99726.47
2022-08-01T13:16:27.754Z,99724.66
2022-08-01T13:19:07.231Z,99712.16
2022-08-01T13:21:53.094Z,99711.56
2022-08-01T13:24:29.794Z,99713.41
2022-08-01T13:27:04.453Z,99722.25
2022-08-01T13:29:34.786Z,99716.00
2022-08-01T13:32:28.972Z,99709.97
2022-08-01T13:35:09.603Z,99703.28
2022-08-01T13:37:38.538Z,99712.00
2022-08-01T13:40:07.994Z,99708.09
2022-08-01T13:42:35.459Z,99704.47
2022-08-01T13:45:04.194Z,99704.13
2022-08-01T13:48:12.376Z,99706.03
2022-08-01T13:50:32.861Z,99693.47
2022-08-01T13:53:00.301Z,99697.31
2022-08-01T13:55:32.406Z,99697.97
2022-08-01T13:58:02.356Z,99693.19
2022-08-01T14:00:32.000Z,99692.31
2022-08-01T14:02:59.385Z,99686.31
2022-08-01T14:05:26.505Z,99693.69
2022-08-01T14:07:56.575Z,99694.38
2022-08-01T14:10:27.355Z,99694.19
2022-08-01T14:12:56.937Z,99695.69
2022-08-01T14:15:38.835Z,99691.91
2022-08-01T14:18:10.750Z,99697.31
2022-08-01T14:20:39.516Z,99678.31
2022-08-01T14:23:09.029Z,99682.59
2022-08-01T14:26:01.451Z,99690.53
2022-08-01T14:28:29.018Z,99687.72
2022-08-01T14:30:57.550Z,99690.44
2022-08-01T14:33:25.284Z,99693.78
2022-08-01T14:36:06.087Z,99690.16
2022-08-01T14:38:40.205Z,99689.69
2022-08-01T14:41:07.618Z,99694.31
2022-08-01T14:43:34.790Z,99696.84
2022-08-01T14:46:04.357Z,99684.84
2022-08-01T14:48:31.998Z,99700.25
2022-08-01T14:51:01.461Z,99688.84
2022-08-01T14:53:28.551Z,99690.88
2022-08-01T14:55:55.999Z,99682.78
2022-08-01T14:58:23.537Z,99689.28
2022-08-01T15:00:54.297Z,99696.41
2022-08-01T15:03:24.242Z,99685.84
2022-08-01T15:05:51.378Z,99697.09
2022-08-01T15:08:18.491Z,99695.69
2022-08-01T15:10:45.863Z,99694.72
2022-08-01T15:13:12.916Z,99690.97
2022-08-01T15:15:39.980Z,99698.63
2022-08-01T15:18:07.323Z,99699.16
2022-08-01T15:20:34.416Z,99708.16
2022-08-01T15:23:01.627Z,99695.87
2022-08-01T15:25:41.223Z,99702.34
2022-08-01T15:28:10.591Z,99710.22
2022-08-01T15:30:38.303Z,99698.72
2022-08-01T15:33:05.839Z,99707.94
2022-08-01T15:35:33.145Z,99703.19
2022-08-01T15:38:00.577Z,99696.72
2022-08-01T15:40:29.338Z,99698.81
2022-08-01T15:42:56.620Z,99695.44
2022-08-01T15:48:11.278Z,99710.59
2022-08-01T15:50:39.415Z,99708.09
2022-08-01T15:53:07.397Z,99715.06
2022-08-01T15:55:39.742Z,99708.03
2022-08-01T15:58:08.171Z,99706.13
2022-08-01T16:00:40.434Z,99705.84
2022-08-01T16:03:10.163Z,99709.19
2022-08-01T16:05:42.829Z,99710.31
2022-08-01T16:08:14.377Z,99697.50
2022-08-01T16:10:41.966Z,99696.16
2022-08-01T16:13:09.601Z,99702.13
2022-08-01T16:15:37.943Z,99701.31
2022-08-01T16:18:06.430Z,99703.75
2022-08-01T16:20:34.511Z,99705.97
2022-08-01T16:23:03.359Z,99709.25
2022-08-01T16:25:30.442Z,99719.87
2022-08-01T16:27:57.585Z,99713.06
2022-08-01T16:30:25.092Z,99700.25
2022-08-01T16:32:55.842Z,99707.03
2022-08-01T16:35:32.694Z,99701.03
2022-08-01T16:38:07.272Z,99717.88
2022-08-01T16:40:46.369Z,99709.69
2022-08-01T16:43:15.843Z,99710.16
2022-08-01T16:45:43.539Z,99710.09
2022-08-01T16:48:12.033Z,99710.34
2022-08-01T16:50:39.823Z,99714.94
2022-08-01T16:53:07.257Z,99720.25
2022-08-01T16:55:45.824Z,99708.19
2022-08-01T16:58:23.536Z,99706.22
2022-08-01T17:00:57.461Z,99711.31
2022-08-01T17:03:47.083Z,99713.16
2022-08-01T17:06:16.784Z,99722.88
2022-08-01T17:08:47.104Z,99722.78
2022-08-01T17:11:15.213Z,99716.47
2022-08-01T17:13:43.240Z,99716.38
2022-08-01T17:16:13.454Z,99721.72
2022-08-01T17:18:40.831Z,99723.50
2022-08-01T17:21:07.898Z,99722.91
2022-08-01T17:23:35.884Z,99730.38
2022-08-01T17:26:03.230Z,99731.06
2022-08-01T17:28:30.377Z,99730.94
2022-08-01T17:31:00.571Z,99738.72
2022-08-01T17:33:44.817Z,99734.03
2022-08-01T17:36:14.974Z,99742.53
2022-08-01T17:38:42.154Z,99736.44
2022-08-01T17:41:09.530Z,99741.97
2022-08-01T17:43:36.971Z,99738.84
2022-08-01T17:46:04.121Z,99742.22
2022-08-01T17:48:31.251Z,99738.94
2022-08-01T17:50:58.693Z,99742.06
2022-08-01T17:53:25.928Z,99740.50
2022-08-01T17:55:57.260Z,99742.25
2022-08-01T17:58:33.680Z,99736.16
2022-08-01T18:01:14.440Z,99736.91
2022-08-01T18:03:42.155Z,99745.31
2022-08-01T18:06:10.456Z,99741.37
2022-08-01T18:08:40.477Z,99746.03
2022-08-01T18:11:08.526Z,99747.28
2022-08-01T18:13:40.447Z,99755.31
2022-08-01T18:16:11.117Z,99750.00
2022-08-01T18:18:39.269Z,99754.66
2022-08-01T18:21:07.048Z,99747.19
2022-08-01T18:23:35.179Z,99748.41
2022-08-01T18:26:03.086Z,99749.84
2022-08-01T18:28:36.553Z,99762.41
2022-08-01T18:31:07.311Z,99753.84
2022-08-01T18:33:35.212Z,99758.00
2022-08-01T18:36:04.526Z,99763.09
2022-08-01T18:38:33.101Z,99764.53
2022-08-01T18:41:01.301Z,99770.75
2022-08-01T18:43:28.588Z,99777.09
2022-08-01T18:45:58.827Z,99779.78
2022-08-01T18:48:25.883Z,99774.41
2022-08-01T18:50:54.003Z,99775.69
2022-08-01T18:53:23.865Z,99784.62
2022-08-01T18:55:51.095Z,99784.16
2022-08-01T18:58:18.566Z,99784.44
2022-08-01T19:00:45.966Z,99785.84
2022-08-01T19:03:13.819Z,99797.00
2022-08-01T19:05:41.547Z,99791.72
2022-08-01T19:08:11.972Z,99804.31
2022-08-01T19:10:40.208Z,99805.00
2022-08-01T19:13:08.491Z,99809.22
2022-08-01T19:15:36.365Z,99799.78
2022-08-01T19:18:03.864Z,99813.34
2022-08-01T19:20:31.327Z,99812.22
2022-08-01T19:22:58.853Z,99814.81
2022-08-01T19:25:25.957Z,99816.09
2022-08-01T19:27:54.086Z,99825.16
2022-08-01T19:30:21.442Z,99824.56
2022-08-01T19:32:49.039Z,99831.47
2022-08-01T19:35:17.180Z,99828.78
2022-08-01T19:37:50.937Z,99829.97
2022-08-01T19:40:26.622Z,99822.69
2022-08-01T19:42:57.045Z,99828.69
2022-08-01T19:45:28.242Z,99822.56
2022-08-01T19:47:57.540Z,99824.19
2022-08-01T19:50:29.261Z,99828.19
2022-08-01T19:52:57.768Z,99834.72
2022-08-01T19:55:27.334Z,99834.37
2022-08-01T19:58:24.457Z,99834.81
2022-08-01T20:00:44.864Z,99833.31
2022-08-01T20:03:13.545Z,99825.19
2022-08-01T20:05:40.696Z,99828.84
2022-08-01T20:08:07.874Z,99827.31
2022-08-01T20:10:38.222Z,99831.16
2022-08-01T20:13:06.661Z,99829.28
2022-08-01T20:15:33.729Z,99831.75
2022-08-01T20:18:01.088Z,99844.97
2022-08-01T20:20:28.456Z,99830.84
2022-08-01T20:22:57.310Z,99832.19
2022-08-01T20:25:33.637Z,99836.84
2022-08-01T20:28:12.157Z,99841.75
2022-08-01T20:30:40.664Z,99837.88
2022-08-01T20:33:08.966Z,99838.38
2022-08-01T20:35:53.260Z,99826.88
2022-08-01T20:38:23.188Z,99838.94
2022-08-01T20:40:54.549Z,99841.63
2022-08-01T20:43:22.426Z,99848.31
2022-08-01T20:45:51.461Z,99839.38
2022-08-01T20:48:19.042Z,99849.03
2022-08-01T20:51:06.298Z,99843.13
2022-08-01T20:53:36.769Z,99841.91
2022-08-01T20:56:07.709Z,99846.66
2022-08-01T20:58:44.029Z,99845.94
2022-08-01T21:01:14.975Z,99846.25
2022-08-01T21:04:04.105Z,99841.31
2022-08-01T21:06:42.745Z,99840.63
2022-08-01T21:09:11.003Z,99838.16
2022-08-01T21:12:05.014Z,99840.09
2022-08-01T21:14:45.891Z,99838.38
2022-08-01T21:17:18.734Z,99835.16
2022-08-01T21:19:49.785Z,99840.87
2022-08-01T21:22:27.175Z,99836.41
2022-08-01T21:24:58.998Z,99842.59
2022-08-01T21:27:33.369Z,99848.56
2022-08-01T21:30:04.463Z,99852.03
2022-08-01T21:32:33.833Z,99846.25
2022-08-01T21:35:02.230Z,99856.53
2022-08-01T21:37:30.814Z,99844.47
2022-08-01T21:40:00.202Z,99843.28
2022-08-01T21:42:38.383Z,99848.87
2022-08-01T21:45:06.738Z,99840.78
2022-08-01T21:47:34.491Z,99848.25
2022-08-01T21:50:03.076Z,99847.41
2022-08-01T21:52:43.369Z,99853.25
2022-08-01T21:55:22.876Z,99858.66
2022-08-01T21:58:22.556Z,99849.97
2022-08-01T22:00:57.685Z,99855.69
2022-08-01T22:03:35.445Z,99853.47
2022-08-01T22:06:04.165Z,99850.06
2022-08-01T22:08:36.790Z,99850.47
2022-08-01T22:11:06.354Z,99851.78
2022-08-01T22:13:37.423Z,99857.38
2022-08-01T22:16:05.750Z,99853.34
2022-08-01T22:18:34.397Z,99859.97
2022-08-01T22:21:03.074Z,99861.56
2022-08-01T22:23:31.233Z,99862.44
2022-08-01T22:25:58.457Z,99859.41
2022-08-01T22:28:26.176Z,99857.78
2022-08-01T22:30:54.526Z,99862.16
2022-08-01T22:33:23.192Z,99870.72
2022-08-01T22:35:52.582Z,99867.22
2022-08-01T22:38:22.599Z,99869.31
2022-08-01T22:40:52.563Z,99869.41
2022-08-01T22:43:26.370Z,99871.91
2022-08-01T22:46:04.241Z,99879.59
2022-08-01T22:48:46.753Z,99880.03
2022-08-01T22:51:54.505Z,99873.69
2022-08-01T22:54:35.513Z,99865.44
2022-08-01T22:57:07.101Z,99872.28
2022-08-01T22:59:44.762Z,99875.19
2022-08-01T23:02:16.280Z,99874.97
2022-08-01T23:04:47.151Z,99869.19
2022-08-01T23:07:28.061Z,99877.47
2022-08-01T23:09:57.079Z,99874.56
2022-08-01T23:12:26.029Z,99878.91
2022-08-01T23:14:55.199Z,99883.25
2022-08-01T23:17:28.183Z,99884.06
2022-08-01T23:20:01.836Z,99879.75
2022-08-01T23:22:32.006Z,99880.56
2022-08-01T23:25:04.099Z,99877.69
2022-08-01T23:27:54.286Z,99886.19
2022-08-01T23:30:29.082Z,99887.81
2022-08-01T23:32:56.840Z,99885.75
2022-08-01T23:35:25.070Z,99883.47
2022-08-01T23:37:52.734Z,99883.47
2022-08-01T23:40:20.304Z,99885.75
2022-08-01T23:42:47.549Z,99883.91
2022-08-01T23:45:14.834Z,99875.62
2022-08-01T23:47:42.474Z,99872.72
2022-08-01T23:50:09.807Z,99868.38
2022-08-01T23:52:47.325Z,99864.25
2022-08-01T23:55:17.716Z,99872.31
2022-08-01T23:57:44.922Z,99865.69
